createdAt,value
2022-12-08T00:00:00.701Z,609.69
2022-12-08T00:00:11.744Z,609.51
2022-12-08T00:09:08.850Z,610.31
2022-12-08T00:09:20.750Z,610.49
2022-12-08T00:09:38.246Z,610.45
2022-12-08T00:09:44.747Z,610.41
2022-12-08T00:09:55.717Z,610.48
2022-12-08T00:10:39.922Z,610.62
2022-12-08T00:10:47.829Z,610.83
2022-12-08T00:10:49.367Z,610.70
2022-12-08T00:10:51.041Z,610.73
2022-12-08T00:10:55.725Z,610.69
2022-12-08T00:11:05.713Z,610.63
2022-12-08T00:11:16.772Z,610.73
2022-12-08T00:11:28.773Z,610.84
2022-12-08T00:11:40.772Z,610.79
2022-12-08T00:11:52.790Z,610.83
2022-12-08T00:12:04.710Z,610.83
2022-12-08T00:12:15.751Z,610.84
2022-12-08T00:12:27.764Z,610.96
2022-12-08T00:12:39.773Z,611.01
2022-12-08T00:12:50.735Z,611.06
2022-12-08T00:13:01.711Z,611.06
2022-12-08T00:13:12.749Z,611.06
2022-12-08T00:13:24.757Z,611.25
2022-12-08T00:13:36.765Z,611.35
2022-12-08T00:13:48.771Z,611.27
2022-12-08T00:14:00.771Z,611.12
2022-12-08T00:14:12.782Z,611.30
2022-12-08T00:14:24.781Z,611.35
2022-12-08T00:14:35.750Z,611.33
2022-12-08T00:14:46.713Z,611.40
2022-12-08T00:14:57.775Z,611.42
2022-12-08T00:15:09.773Z,611.59
2022-12-08T00:15:21.796Z,611.56
2022-12-08T00:15:33.725Z,611.65
2022-12-08T00:15:45.744Z,611.72
2022-12-08T00:15:56.723Z,611.76
2022-12-08T00:16:08.742Z,611.85
2022-12-08T00:16:19.749Z,611.96
2022-12-08T00:16:30.822Z,611.95
2022-12-08T00:16:42.796Z,612.12
2022-12-08T00:21:34.150Z,612.33
2022-12-08T00:21:45.711Z,612.47
2022-12-08T00:21:57.718Z,612.39
2022-12-08T00:22:09.727Z,612.38
2022-12-08T00:22:21.740Z,612.48
2022-12-08T00:22:33.749Z,612.54
2022-12-08T00:22:45.757Z,612.63
2022-12-08T00:22:56.715Z,612.59
2022-12-08T00:23:08.721Z,612.49
2022-12-08T00:23:20.738Z,612.48
2022-12-08T00:23:32.757Z,612.50
2022-12-08T00:23:43.723Z,612.47
2022-12-08T00:23:54.781Z,612.32
2022-12-08T00:24:06.780Z,611.96
2022-12-08T00:24:18.789Z,612.00
2022-12-08T00:24:30.704Z,612.47
2022-12-08T00:24:41.785Z,612.38
2022-12-08T00:24:53.707Z,612.48
2022-12-08T00:25:05.024Z,612.80
2022-12-08T00:25:15.721Z,612.88
2022-12-08T00:25:26.847Z,613.08
2022-12-08T00:25:38.752Z,612.87
2022-12-08T00:25:49.714Z,612.79
2022-12-08T00:26:00.771Z,612.51
2022-12-08T00:26:12.805Z,612.55
2022-12-08T00:26:24.759Z,612.84
2022-12-08T00:26:36.774Z,612.84
2022-12-08T00:26:48.782Z,612.83
2022-12-08T00:26:59.741Z,612.74
2022-12-08T00:27:11.758Z,612.76
2022-12-08T00:27:22.737Z,612.78
2022-12-08T00:27:34.744Z,612.99
2022-12-08T00:27:45.715Z,612.97
2022-12-08T00:27:57.713Z,613.05
2022-12-08T00:28:08.780Z,613.15
2022-12-08T00:28:20.786Z,613.21
2022-12-08T00:28:32.698Z,613.19
2022-12-08T00:28:43.733Z,613.27
2022-12-08T00:28:54.696Z,613.30
2022-12-08T00:29:05.735Z,613.31
2022-12-08T00:29:17.964Z,613.33
2022-12-08T00:29:28.736Z,613.43
2022-12-08T00:29:40.740Z,613.46
2022-12-08T00:29:52.758Z,613.42
2022-12-08T00:30:04.754Z,613.38
2022-12-08T00:30:15.723Z,613.38
2022-12-08T00:30:27.741Z,613.48
2022-12-08T00:30:39.739Z,613.48
2022-12-08T00:30:51.755Z,613.55
2022-12-08T00:31:03.752Z,613.86
2022-12-08T00:31:15.846Z,613.93
2022-12-08T00:31:26.762Z,613.74
2022-12-08T00:31:37.769Z,613.59
2022-12-08T00:31:48.809Z,613.62
2022-12-08T00:31:59.781Z,613.56
2022-12-08T00:32:11.747Z,613.53
2022-12-08T00:32:22.814Z,613.37
2022-12-08T00:32:33.728Z,613.40
2022-12-08T00:32:45.735Z,613.68
2022-12-08T00:32:57.756Z,613.81
2022-12-08T00:33:09.760Z,613.92
2022-12-08T00:33:20.708Z,613.92
2022-12-08T00:33:32.725Z,613.96
2022-12-08T00:41:25.203Z,612.69
2022-12-08T00:41:35.699Z,612.61
2022-12-08T00:41:46.764Z,613.07
2022-12-08T00:41:58.775Z,612.62
2022-12-08T00:42:10.784Z,612.78
2022-12-08T00:42:22.788Z,612.74
2022-12-08T00:42:34.724Z,612.78
2022-12-08T00:42:46.722Z,612.86
2022-12-08T00:42:57.783Z,612.80
2022-12-08T00:43:09.716Z,612.74
2022-12-08T00:43:20.775Z,613.20
2022-12-08T00:43:32.784Z,613.20
2022-12-08T00:43:44.700Z,613.00
2022-12-08T00:43:56.717Z,613.00
2022-12-08T00:44:07.778Z,612.99
2022-12-08T00:44:19.786Z,613.30
2022-12-08T00:44:31.693Z,613.10
2022-12-08T00:44:42.745Z,613.13
2022-12-08T00:44:53.701Z,613.22
2022-12-08T00:45:05.716Z,612.96
2022-12-08T00:45:16.691Z,613.32
2022-12-08T00:45:27.795Z,613.14
2022-12-08T00:45:39.785Z,613.10
2022-12-08T00:45:51.793Z,612.74
2022-12-08T00:46:03.773Z,612.81
2022-12-08T00:46:14.767Z,612.79
2022-12-08T00:46:25.764Z,613.02
2022-12-08T00:46:36.720Z,613.23
2022-12-08T00:46:47.783Z,613.17
2022-12-08T00:46:59.716Z,613.03
2022-12-08T00:47:11.719Z,612.92
2022-12-08T00:47:25.073Z,613.08
2022-12-08T00:47:35.739Z,613.19
2022-12-08T00:47:47.740Z,613.16
2022-12-08T00:47:59.756Z,613.28
2022-12-08T00:48:11.770Z,613.48
2022-12-08T00:48:23.780Z,613.45
2022-12-08T00:48:34.742Z,613.40
2022-12-08T00:48:46.721Z,613.40
2022-12-08T00:48:58.736Z,613.29
2022-12-08T00:49:10.751Z,613.10
2022-12-08T00:49:22.713Z,613.26
2022-12-08T00:49:33.778Z,613.46
2022-12-08T00:49:45.784Z,613.40
2022-12-08T00:49:57.706Z,613.59
2022-12-08T00:50:09.723Z,613.62
2022-12-08T00:50:20.791Z,613.53
2022-12-08T00:50:31.734Z,613.56
2022-12-08T00:50:43.735Z,613.30
2022-12-08T00:50:54.704Z,613.84
2022-12-08T00:51:05.757Z,613.97
2022-12-08T00:51:16.717Z,613.47
2022-12-08T00:51:28.718Z,613.27
2022-12-08T00:51:39.781Z,613.42
2022-12-08T00:51:51.789Z,613.37
2022-12-08T00:52:03.787Z,613.23
2022-12-08T00:52:15.698Z,613.37
2022-12-08T00:52:26.757Z,613.18
2022-12-08T00:52:37.724Z,613.06
2022-12-08T00:52:49.727Z,612.98
2022-12-08T00:53:00.698Z,613.02
2022-12-08T00:53:11.740Z,613.05
2022-12-08T00:53:23.747Z,613.09
2022-12-08T00:53:35.751Z,613.00
2022-12-08T00:53:47.760Z,613.01
2022-12-08T00:53:59.764Z,612.98
2022-12-08T00:54:10.726Z,612.94
2022-12-08T00:54:22.728Z,612.94
2022-12-08T00:54:34.747Z,612.99
2022-12-08T00:54:46.761Z,612.94
2022-12-08T00:54:57.724Z,612.93
2022-12-08T00:55:09.723Z,612.94
2022-12-08T00:55:20.785Z,612.85
2022-12-08T00:58:46.692Z,613.55
2022-12-08T00:58:57.777Z,613.69
2022-12-08T00:59:08.746Z,613.71
2022-12-08T00:59:20.746Z,613.67
2022-12-08T00:59:31.700Z,613.62
2022-12-08T00:59:43.708Z,613.60
2022-12-08T01:02:16.380Z,613.77
2022-12-08T01:02:26.784Z,613.47
2022-12-08T01:02:37.744Z,613.39
2022-12-08T01:02:49.792Z,613.79
2022-12-08T01:03:01.801Z,614.14
2022-12-08T01:03:12.740Z,613.83
2022-12-08T01:03:23.789Z,613.87
2022-12-08T01:03:34.733Z,614.00
2022-12-08T01:03:45.770Z,614.08
2022-12-08T01:03:57.704Z,614.09
2022-12-08T01:04:08.744Z,614.08
2022-12-08T01:04:20.750Z,614.03
2022-12-08T01:04:31.708Z,614.02
2022-12-08T01:04:42.737Z,613.92
2022-12-08T01:04:54.743Z,613.91
2022-12-08T01:05:05.699Z,613.89
2022-12-08T01:05:16.743Z,613.86
2022-12-08T01:05:27.713Z,613.92
2022-12-08T01:05:39.716Z,613.95
2022-12-08T01:05:50.694Z,613.90
2022-12-08T01:06:01.758Z,613.74
2022-12-08T01:06:12.722Z,613.63
2022-12-08T01:06:23.685Z,614.01
2022-12-08T01:06:34.759Z,614.26
2022-12-08T01:06:46.769Z,614.37
2022-12-08T01:06:57.720Z,614.33
2022-12-08T01:07:09.741Z,614.35
2022-12-08T01:07:21.748Z,614.44
2022-12-08T01:07:33.754Z,614.41
2022-12-08T01:07:45.787Z,614.38
2022-12-08T01:07:57.805Z,614.53
2022-12-08T01:08:09.826Z,614.35
2022-12-08T01:08:21.768Z,614.32
2022-12-08T01:08:32.707Z,614.37
2022-12-08T01:08:44.726Z,614.40
2022-12-08T01:08:56.748Z,614.36
2022-12-08T01:09:07.723Z,614.22
2022-12-08T01:09:18.685Z,614.25
2022-12-08T01:09:29.756Z,614.56
2022-12-08T01:09:41.766Z,614.70
2022-12-08T01:09:53.777Z,614.70
2022-12-08T01:10:06.085Z,614.52
2022-12-08T01:10:17.722Z,614.45
2022-12-08T01:10:29.744Z,614.54
2022-12-08T01:10:40.702Z,614.37
2022-12-08T01:10:52.718Z,614.21
2022-12-08T01:11:03.784Z,614.44
2022-12-08T01:11:15.719Z,614.36
2022-12-08T01:11:26.781Z,614.19
2022-12-08T01:11:37.749Z,614.17
2022-12-08T01:11:49.758Z,614.10
2022-12-08T01:12:01.780Z,614.18
2022-12-08T01:12:13.712Z,614.23
2022-12-08T01:12:25.725Z,614.19
2022-12-08T01:12:37.716Z,614.25
2022-12-08T01:12:49.743Z,614.32
2022-12-08T01:13:01.751Z,614.35
2022-12-08T01:13:13.737Z,614.35
2022-12-08T01:13:24.741Z,614.21
2022-12-08T01:22:02.384Z,613.88
2022-12-08T01:22:12.693Z,613.98
2022-12-08T01:22:23.759Z,614.01
2022-12-08T01:22:35.768Z,614.01
2022-12-08T01:22:47.779Z,613.86
2022-12-08T01:22:59.774Z,613.72
2022-12-08T01:23:10.740Z,613.54
2022-12-08T01:23:22.736Z,613.47
2022-12-08T01:23:34.740Z,613.66
2022-12-08T01:23:45.732Z,613.84
2022-12-08T01:23:57.737Z,613.53
2022-12-08T01:24:09.758Z,613.45
2022-12-08T01:24:20.720Z,613.90
2022-12-08T01:24:31.716Z,613.78
2022-12-08T01:24:43.721Z,613.57
2022-12-08T01:24:54.697Z,613.50
2022-12-08T01:25:05.745Z,613.76
2022-12-08T01:31:02.512Z,613.64
2022-12-08T01:31:12.741Z,613.69
2022-12-08T01:31:23.934Z,613.81
2022-12-08T01:31:34.738Z,614.07
2022-12-08T01:31:45.691Z,614.35
2022-12-08T01:34:05.705Z,613.75
2022-12-08T01:34:16.774Z,613.69
2022-12-08T01:34:27.735Z,613.85
2022-12-08T01:34:39.751Z,614.04
2022-12-08T01:34:51.753Z,614.16
2022-12-08T01:35:03.768Z,614.01
2022-12-08T01:35:14.726Z,613.81
2022-12-08T01:35:26.733Z,613.57
2022-12-08T01:41:20.512Z,614.15
2022-12-08T01:41:30.714Z,614.10
2022-12-08T01:41:41.775Z,614.09
2022-12-08T01:41:52.738Z,614.36
2022-12-08T01:42:04.753Z,614.54
2022-12-08T01:42:16.752Z,614.48
2022-12-08T01:42:28.768Z,614.36
2022-12-08T01:42:40.772Z,614.30
2022-12-08T01:42:52.768Z,614.30
2022-12-08T01:43:04.775Z,614.39
2022-12-08T01:49:54.771Z,614.21
2022-12-08T01:50:05.979Z,614.18
2022-12-08T01:50:16.707Z,614.13
2022-12-08T01:50:27.770Z,614.19
2022-12-08T01:50:39.775Z,614.20
2022-12-08T01:50:51.681Z,614.19
2022-12-08T01:51:02.748Z,614.18
2022-12-08T01:51:14.749Z,614.16
2022-12-08T01:51:26.753Z,614.15
2022-12-08T01:51:37.723Z,614.16
2022-12-08T01:51:48.688Z,614.21
2022-12-08T01:51:59.684Z,614.28
2022-12-08T01:52:10.746Z,614.31
2022-12-08T02:03:06.610Z,614.63
2022-12-08T02:03:17.769Z,614.72
2022-12-08T02:03:29.680Z,614.80
2022-12-08T02:03:40.723Z,614.89
2022-12-08T02:03:51.688Z,614.98
2022-12-08T02:04:02.747Z,614.87
2022-12-08T02:04:13.730Z,614.84
2022-12-08T02:12:33.463Z,615.15
2022-12-08T02:12:44.698Z,615.06
2022-12-08T02:12:55.763Z,615.02
2022-12-08T02:13:07.752Z,615.07
2022-12-08T02:13:19.696Z,615.15
2022-12-08T02:13:31.714Z,615.18
2022-12-08T02:13:43.713Z,615.02
2022-12-08T02:13:55.725Z,615.10
2022-12-08T02:14:07.742Z,615.44
2022-12-08T02:14:19.757Z,615.27
2022-12-08T02:14:30.716Z,615.37
2022-12-08T02:14:42.714Z,615.49
2022-12-08T02:14:53.697Z,615.57
2022-12-08T02:15:05.811Z,615.42
2022-12-08T02:15:16.685Z,615.29
2022-12-08T02:15:27.759Z,615.44
2022-12-08T02:25:17.496Z,615.27
2022-12-08T02:25:27.732Z,615.41
2022-12-08T02:25:38.723Z,615.85
2022-12-08T02:25:50.730Z,615.87
2022-12-08T02:26:02.732Z,615.20
2022-12-08T02:26:14.732Z,614.90
2022-12-08T02:26:25.694Z,615.26
2022-12-08T02:26:37.706Z,615.57
2022-12-08T02:26:49.714Z,615.46
2022-12-08T02:27:00.677Z,615.72
2022-12-08T02:27:11.731Z,615.84
2022-12-08T02:27:23.745Z,615.76
2022-12-08T02:27:34.722Z,615.66
2022-12-08T02:27:46.734Z,615.91
2022-12-08T02:27:58.749Z,615.61
2022-12-08T02:28:09.725Z,615.80
2022-12-08T02:28:20.689Z,616.06
2022-12-08T02:28:31.748Z,616.06
2022-12-08T02:28:43.704Z,615.91
2022-12-08T02:28:55.712Z,616.13
2022-12-08T02:29:07.709Z,616.08
2022-12-08T02:29:19.713Z,616.04
2022-12-08T02:29:30.693Z,615.96
2022-12-08T02:29:42.713Z,616.13
2022-12-08T02:29:54.713Z,616.20
2022-12-08T02:30:07.020Z,615.87
2022-12-08T02:30:18.720Z,616.04
2022-12-08T02:30:29.821Z,616.21
2022-12-08T02:30:41.790Z,616.24
2022-12-08T02:30:53.794Z,616.42
2022-12-08T02:31:04.825Z,616.26
2022-12-08T02:31:16.800Z,616.13
2022-12-08T02:31:28.806Z,616.32
2022-12-08T02:31:40.748Z,616.17
2022-12-08T02:31:51.711Z,616.27
2022-12-08T02:32:03.726Z,616.54
2022-12-08T02:32:15.736Z,616.57
2022-12-08T02:32:27.746Z,616.61
2022-12-08T02:32:39.755Z,616.51
2022-12-08T02:32:51.775Z,616.16
2022-12-08T02:33:03.691Z,616.11
2022-12-08T02:33:14.774Z,616.36
2022-12-08T02:33:25.719Z,616.45
2022-12-08T02:33:36.680Z,616.36
2022-12-08T02:33:47.764Z,616.50
2022-12-08T02:33:59.686Z,616.26
2022-12-08T02:34:10.749Z,616.14
2022-12-08T02:34:21.708Z,616.34
2022-12-08T02:34:32.777Z,616.42
2022-12-08T02:34:44.677Z,616.34
2022-12-08T02:34:55.770Z,616.29
2022-12-08T02:35:07.687Z,616.51
2022-12-08T02:35:18.746Z,616.52
2022-12-08T02:35:30.754Z,616.57
2022-12-08T02:35:42.764Z,616.49
2022-12-08T02:35:53.725Z,616.21
2022-12-08T02:36:04.687Z,616.07
2022-12-08T02:36:15.680Z,616.38
2022-12-08T02:36:26.771Z,616.61
2022-12-08T02:36:37.731Z,616.36
2022-12-08T02:36:48.711Z,616.83
2022-12-08T02:37:00.725Z,616.90
2022-12-08T02:37:11.699Z,616.98
2022-12-08T02:37:22.775Z,617.02
2022-12-08T02:37:34.695Z,617.05
2022-12-08T02:37:45.731Z,616.91
2022-12-08T02:37:57.744Z,616.81
2022-12-08T02:38:08.720Z,616.77
2022-12-08T02:38:20.733Z,616.78
2022-12-08T02:38:32.730Z,616.75
2022-12-08T02:38:43.691Z,616.79
2022-12-08T02:38:54.743Z,616.75
2022-12-08T02:39:05.712Z,616.90
2022-12-08T02:39:17.711Z,617.05
2022-12-08T02:39:28.711Z,617.03
2022-12-08T02:39:40.718Z,617.00
2022-12-08T02:39:52.724Z,616.91
2022-12-08T02:40:05.026Z,616.79
2022-12-08T02:40:16.694Z,616.67
2022-12-08T02:40:28.716Z,616.58
2022-12-08T02:40:39.776Z,616.56
2022-12-08T02:40:51.689Z,616.58
2022-12-08T02:41:02.750Z,616.54
2022-12-08T02:41:13.724Z,616.35
2022-12-08T02:41:25.735Z,616.27
2022-12-08T02:41:37.727Z,616.33
2022-12-08T02:41:49.737Z,616.74
2022-12-08T02:42:01.730Z,617.26
2022-12-08T02:42:13.741Z,617.47
2022-12-08T02:42:24.722Z,617.58
2022-12-08T02:42:36.731Z,617.66
2022-12-08T02:42:48.737Z,617.51
2022-12-08T02:42:59.727Z,617.45
2022-12-08T02:43:11.731Z,617.35
2022-12-08T02:43:22.695Z,617.22
2022-12-08T02:43:34.710Z,617.23
2022-12-08T02:43:45.768Z,617.29
2022-12-08T02:43:57.691Z,617.33
2022-12-08T02:44:08.752Z,617.09
2022-12-08T02:44:20.770Z,617.04
2022-12-08T02:44:31.731Z,617.08
2022-12-08T02:44:43.749Z,617.06
2022-12-08T02:44:55.749Z,617.10
2022-12-08T02:45:07.758Z,617.02
2022-12-08T02:46:31.797Z,616.81
2022-12-08T02:46:43.760Z,617.26
2022-12-08T02:46:55.731Z,617.07
2022-12-08T02:47:06.679Z,616.73
2022-12-08T02:51:41.718Z,617.02
2022-12-08T02:51:53.727Z,616.93
2022-12-08T02:52:05.736Z,616.98
2022-12-08T02:52:17.766Z,617.09
2022-12-08T02:52:29.691Z,617.16
2022-12-08T02:52:41.707Z,617.11
2022-12-08T02:52:53.706Z,617.03
2022-12-08T02:59:10.840Z,617.13
2022-12-08T02:59:21.700Z,617.31
2022-12-08T02:59:33.725Z,617.12
2022-12-08T02:59:44.720Z,617.13
2022-12-08T02:59:56.720Z,617.09
2022-12-08T03:00:08.074Z,617.33
2022-12-08T03:00:18.685Z,617.15
2022-12-08T03:00:29.690Z,616.95
2022-12-08T03:00:40.751Z,617.07
2022-12-08T03:00:52.675Z,617.16
2022-12-08T03:01:03.820Z,617.38
2022-12-08T03:01:14.740Z,617.29
2022-12-08T03:01:25.781Z,617.22
2022-12-08T03:05:08.573Z,617.45
2022-12-08T03:05:18.765Z,617.42
2022-12-08T03:05:30.672Z,617.58
2022-12-08T03:05:41.720Z,617.57
2022-12-08T03:05:53.728Z,617.74
2022-12-08T03:06:04.689Z,617.85
2022-12-08T03:06:15.750Z,617.88
2022-12-08T03:06:26.724Z,617.81
2022-12-08T03:06:37.675Z,617.79
2022-12-08T03:06:48.738Z,617.86
2022-12-08T03:07:00.750Z,617.96
2022-12-08T03:07:12.749Z,617.86
2022-12-08T03:07:24.677Z,618.10
2022-12-08T03:07:36.714Z,617.89
2022-12-08T03:07:47.707Z,617.96
2022-12-08T03:07:58.735Z,617.92
2022-12-08T03:08:09.747Z,618.26
2022-12-08T03:08:21.758Z,618.22
2022-12-08T03:08:32.670Z,618.04
2022-12-08T03:08:43.723Z,618.47
2022-12-08T03:08:54.704Z,618.59
2022-12-08T03:09:05.697Z,618.62
2022-12-08T03:09:16.666Z,618.40
2022-12-08T03:09:27.744Z,618.27
2022-12-08T03:09:38.703Z,618.42
2022-12-08T03:09:49.668Z,618.78
2022-12-08T03:10:00.948Z,618.68
2022-12-08T03:10:11.724Z,618.77
2022-12-08T03:10:22.683Z,618.62
2022-12-08T03:10:33.683Z,618.61
2022-12-08T03:10:44.764Z,618.58
2022-12-08T03:10:56.666Z,618.54
2022-12-08T03:11:07.727Z,618.45
2022-12-08T03:11:19.731Z,618.53
2022-12-08T03:11:31.745Z,618.55
2022-12-08T03:11:43.759Z,618.61
2022-12-08T03:28:57.426Z,620.83
2022-12-08T03:29:07.713Z,620.79
2022-12-08T03:29:18.669Z,620.74
2022-12-08T03:29:29.730Z,620.71
2022-12-08T03:29:41.738Z,620.68
2022-12-08T03:29:53.734Z,620.60
2022-12-08T03:30:05.935Z,620.59
2022-12-08T03:30:17.726Z,620.71
2022-12-08T03:30:29.732Z,620.70
2022-12-08T03:30:41.749Z,620.74
2022-12-08T03:30:52.780Z,620.80
2022-12-08T03:31:03.821Z,620.80
2022-12-08T03:31:14.836Z,620.82
2022-12-08T03:31:25.844Z,620.86
2022-12-08T03:31:37.820Z,621.01
2022-12-08T03:31:48.709Z,621.02
2022-12-08T03:34:46.711Z,621.44
2022-12-08T03:34:58.712Z,621.37
2022-12-08T03:35:10.758Z,621.38
2022-12-08T03:35:21.708Z,621.38
2022-12-08T03:35:32.755Z,621.53
2022-12-08T03:35:44.661Z,621.77
2022-12-08T03:35:55.668Z,621.72
2022-12-08T03:36:06.722Z,621.75
2022-12-08T03:36:17.679Z,621.94
2022-12-08T03:36:28.675Z,622.03
2022-12-08T03:36:40.692Z,622.06
2022-12-08T03:36:51.667Z,622.09
2022-12-08T03:37:02.731Z,622.16
2022-12-08T03:37:13.690Z,622.18
2022-12-08T03:37:24.750Z,622.15
2022-12-08T03:37:36.663Z,622.11
2022-12-08T03:37:47.724Z,622.28
2022-12-08T03:37:59.729Z,622.33
2022-12-08T03:38:10.688Z,622.37
2022-12-08T03:38:22.709Z,622.38
2022-12-08T03:41:44.733Z,622.39
2022-12-08T03:41:56.746Z,622.44
2022-12-08T03:42:08.741Z,622.49
2022-12-08T03:42:20.738Z,622.39
2022-12-08T03:42:32.744Z,622.55
2022-12-08T03:42:44.738Z,622.58
2022-12-08T03:42:55.699Z,622.64
2022-12-08T03:43:07.702Z,622.72
2022-12-08T03:43:19.703Z,622.74
2022-12-08T03:43:30.666Z,622.69
2022-12-08T03:43:41.701Z,622.57
2022-12-08T03:43:52.673Z,622.49
2022-12-08T03:44:03.757Z,622.52
2022-12-08T03:44:15.665Z,622.67
2022-12-08T03:44:26.720Z,622.64
2022-12-08T03:44:38.722Z,622.73
2022-12-08T03:44:49.689Z,622.80
2022-12-08T03:45:00.756Z,622.71
2022-12-08T03:45:12.665Z,622.75
2022-12-08T03:45:23.732Z,622.88
2022-12-08T03:45:35.738Z,622.95
2022-12-08T03:55:01.397Z,623.62
2022-12-08T03:55:11.695Z,623.43
2022-12-08T03:55:23.709Z,623.28
2022-12-08T03:55:35.719Z,623.25
2022-12-08T03:55:47.707Z,623.22
2022-12-08T03:55:58.676Z,623.27
2022-12-08T03:56:09.737Z,623.38
2022-12-08T03:56:21.745Z,623.40
2022-12-08T03:56:33.741Z,623.52
2022-12-08T03:56:45.750Z,623.60
2022-12-08T03:56:57.757Z,623.63
2022-12-08T03:57:09.672Z,623.60
2022-12-08T03:57:21.681Z,623.57
2022-12-08T03:57:32.748Z,623.60
2022-12-08T03:57:44.763Z,623.66
2022-12-08T03:57:56.680Z,623.69
2022-12-08T03:58:07.750Z,623.67
2022-12-08T03:58:19.663Z,623.63
2022-12-08T03:58:35.825Z,623.69
2022-12-08T03:58:42.712Z,623.86
2022-12-08T03:58:52.716Z,623.92
2022-12-08T03:59:03.673Z,623.97
2022-12-08T03:59:14.738Z,623.94
2022-12-08T04:01:32.816Z,624.13
2022-12-08T04:01:44.702Z,623.99
2022-12-08T04:01:55.767Z,624.05
2022-12-08T04:02:07.728Z,624.01
2022-12-08T04:02:18.720Z,623.99
2022-12-08T04:02:29.770Z,623.98
2022-12-08T04:02:41.754Z,624.00
2022-12-08T04:02:52.702Z,624.08
2022-12-08T04:03:03.722Z,624.13
2022-12-08T04:03:14.753Z,624.08
2022-12-08T04:03:25.715Z,624.13
2022-12-08T04:03:36.689Z,624.14
2022-12-08T04:03:47.750Z,624.10
2022-12-08T04:03:59.664Z,624.02
2022-12-08T04:04:10.702Z,624.00
2022-12-08T04:04:21.662Z,623.98
2022-12-08T04:04:32.722Z,624.00
2022-12-08T04:04:44.718Z,624.00
2022-12-08T04:08:22.632Z,624.08
2022-12-08T04:08:32.759Z,624.02
2022-12-08T04:08:44.656Z,623.99
2022-12-08T04:15:42.725Z,624.32
2022-12-08T04:15:53.767Z,624.25
2022-12-08T04:16:04.750Z,624.29
2022-12-08T04:16:15.704Z,624.32
2022-12-08T04:16:26.795Z,624.39
2022-12-08T04:16:37.744Z,624.27
2022-12-08T04:16:48.717Z,624.32
2022-12-08T04:16:59.688Z,624.52
2022-12-08T04:21:28.151Z,625.00
2022-12-08T04:21:32.694Z,625.01
2022-12-08T04:21:43.751Z,624.88
2022-12-08T04:21:55.658Z,624.87
2022-12-08T04:22:06.704Z,624.88
2022-12-08T04:22:17.666Z,624.86
2022-12-08T04:22:28.711Z,624.88
2022-12-08T04:22:40.693Z,624.94
2022-12-08T04:22:51.708Z,624.98
2022-12-08T04:23:03.701Z,624.96
2022-12-08T04:23:15.709Z,624.98
2022-12-08T04:23:26.692Z,624.90
2022-12-08T04:23:37.753Z,624.93
2022-12-08T04:23:49.659Z,625.07
2022-12-08T04:24:01.504Z,625.16
2022-12-08T04:24:11.713Z,625.17
2022-12-08T04:24:22.673Z,625.19
2022-12-08T04:24:33.660Z,625.24
2022-12-08T04:24:44.709Z,625.31
2022-12-08T04:24:55.666Z,625.39
2022-12-08T04:25:06.725Z,625.44
2022-12-08T04:25:18.734Z,625.55
2022-12-08T04:25:30.749Z,625.45
2022-12-08T04:25:41.710Z,625.30
2022-12-08T04:39:01.691Z,626.50
2022-12-08T04:44:57.355Z,626.29
2022-12-08T04:45:07.670Z,626.28
2022-12-08T04:45:18.730Z,626.25
2022-12-08T04:45:30.747Z,626.19
2022-12-08T04:45:42.754Z,626.37
2022-12-08T04:48:26.218Z,626.39
2022-12-08T04:48:36.709Z,626.38
2022-12-08T04:54:02.318Z,626.65
2022-12-08T04:54:13.683Z,626.61
2022-12-08T04:54:24.673Z,626.68
2022-12-08T04:54:35.734Z,626.60
2022-12-08T04:54:47.746Z,626.46
2022-12-08T04:54:59.661Z,626.47
2022-12-08T04:55:10.699Z,626.50
2022-12-08T04:55:22.708Z,626.64
2022-12-08T04:55:34.721Z,626.52
2022-12-08T04:55:46.724Z,626.46
2022-12-08T04:55:58.734Z,626.32
2022-12-08T04:56:10.738Z,626.20
2022-12-08T04:56:22.659Z,626.14
2022-12-08T04:56:33.701Z,626.14
2022-12-08T04:56:45.719Z,626.19
2022-12-08T04:56:56.678Z,626.14
2022-12-08T04:57:07.663Z,626.39
2022-12-08T04:57:18.708Z,626.32
2022-12-08T04:57:29.686Z,626.19
2022-12-08T04:57:40.743Z,626.15
2022-12-08T04:57:51.709Z,626.13
2022-12-08T04:58:03.711Z,626.46
2022-12-08T04:58:15.722Z,626.45
2022-12-08T04:58:27.738Z,626.23
2022-12-08T04:58:40.314Z,626.22
2022-12-08T04:58:51.678Z,626.10
2022-12-08T04:59:02.673Z,626.20
2022-12-08T04:59:13.733Z,626.22
2022-12-08T04:59:25.660Z,626.05
2022-12-08T04:59:36.696Z,626.09
2022-12-08T04:59:47.660Z,626.20
2022-12-08T04:59:58.703Z,626.34
2022-12-08T05:00:10.707Z,626.24
2022-12-08T05:00:21.688Z,626.19
2022-12-08T05:00:32.741Z,626.19
2022-12-08T05:00:44.661Z,626.16
2022-12-08T05:00:55.774Z,626.23
2022-12-08T05:01:07.737Z,626.12
2022-12-08T05:01:18.709Z,626.03
2022-12-08T05:01:29.779Z,626.10
2022-12-08T05:01:41.907Z,626.20
2022-12-08T05:01:53.875Z,626.22
2022-12-08T05:02:04.894Z,626.20
2022-12-08T05:02:16.840Z,626.27
2022-12-08T05:02:27.748Z,626.34
2022-12-08T05:02:38.776Z,626.41
2022-12-08T05:02:50.751Z,626.23
2022-12-08T05:03:02.773Z,626.15
2022-12-08T05:10:18.505Z,626.56
2022-12-08T05:10:28.701Z,626.61
2022-12-08T05:10:40.712Z,626.49
2022-12-08T05:10:51.667Z,626.56
2022-12-08T05:11:03.671Z,626.57
2022-12-08T05:11:15.670Z,626.62
2022-12-08T05:11:27.672Z,626.53
2022-12-08T05:11:39.547Z,626.27
2022-12-08T05:11:50.721Z,626.14
2022-12-08T05:12:01.690Z,626.23
2022-12-08T05:12:13.696Z,626.25
2022-12-08T05:12:24.659Z,626.23
2022-12-08T05:12:35.717Z,626.20
2022-12-08T05:12:47.723Z,626.03
2022-12-08T05:12:58.682Z,626.13
2022-12-08T05:13:09.737Z,626.34
2022-12-08T05:13:21.649Z,626.53
2022-12-08T05:13:32.694Z,626.42
2022-12-08T05:13:43.664Z,626.38
2022-12-08T05:13:55.731Z,626.24
2022-12-08T05:14:06.663Z,626.04
2022-12-08T05:14:18.681Z,626.21
2022-12-08T05:14:29.657Z,626.15
2022-12-08T05:14:41.681Z,626.30
2022-12-08T05:14:52.743Z,626.80
2022-12-08T05:15:04.667Z,626.61
2022-12-08T05:15:15.708Z,626.62
2022-12-08T05:15:27.717Z,626.63
2022-12-08T05:15:38.681Z,626.62
2022-12-08T05:19:09.665Z,626.86
2022-12-08T05:19:20.706Z,626.80
2022-12-08T05:19:32.713Z,626.81
2022-12-08T05:19:44.724Z,626.74
2022-12-08T05:19:56.723Z,626.81
2022-12-08T05:20:08.739Z,626.64
2022-12-08T05:24:04.725Z,626.97
2022-12-08T05:32:16.736Z,627.07
2022-12-08T05:32:27.694Z,627.13
2022-12-08T05:32:38.662Z,627.12
2022-12-08T05:32:50.663Z,627.09
2022-12-08T05:33:01.727Z,627.27
2022-12-08T05:33:13.730Z,627.37
2022-12-08T05:33:25.738Z,627.49
2022-12-08T05:33:37.737Z,627.57
2022-12-08T05:33:48.695Z,627.63
2022-12-08T05:34:02.927Z,627.52
2022-12-08T05:34:10.650Z,627.46
2022-12-08T05:34:21.712Z,627.76
2022-12-08T05:34:33.715Z,627.88
2022-12-08T05:34:44.692Z,627.83
2022-12-08T05:34:56.699Z,627.76
2022-12-08T05:35:08.712Z,627.83
2022-12-08T05:35:20.720Z,627.73
2022-12-08T05:35:32.721Z,627.87
2022-12-08T05:35:44.716Z,627.86
2022-12-08T05:35:55.679Z,627.94
2022-12-08T05:36:06.670Z,627.74
2022-12-08T05:36:18.684Z,627.91
2022-12-08T05:36:30.703Z,627.90
2022-12-08T05:36:41.730Z,627.73
2022-12-08T05:36:52.679Z,627.58
2022-12-08T05:37:03.665Z,627.92
2022-12-08T05:37:15.675Z,627.86
2022-12-08T05:37:26.653Z,627.80
2022-12-08T05:37:37.699Z,627.82
2022-12-08T05:37:49.702Z,627.95
2022-12-08T05:38:01.697Z,627.99
2022-12-08T05:38:12.695Z,627.92
2022-12-08T05:38:24.701Z,627.77
2022-12-08T05:38:36.716Z,627.94
2022-12-08T05:41:16.873Z,627.55
2022-12-08T05:41:28.712Z,627.50
2022-12-08T05:41:40.712Z,627.45
2022-12-08T05:41:52.716Z,627.47
2022-12-08T05:42:04.732Z,627.57
2022-12-08T05:42:20.475Z,627.61
2022-12-08T05:42:28.645Z,627.63